sensor_id;sensor_type;location;lat;lon;timestamp;pressure;altitude;pressure_sealevel;temperature;humidity
29569;BME280;16501;51.462;14.346;2023-05-27T00:00:17;101331.34;;;12.54;62.54
29569;BME280;16501;51.462;14.346;2023-05-27T00:02:43;101321.31;;;12.43;62.63
29569;BME280;16501;51.462;14.346;2023-05-27T00:05:08;101324.03;;;12.34;62.56
29569;BME280;16501;51.462;14.346;2023-05-27T00:07:33;101323.72;;;12.32;63.18
29569;BME280;16501;51.462;14.346;2023-05-27T00:09:58;101328.44;;;12.35;63.01
29569;BME280;16501;51.462;14.346;2023-05-27T00:12:24;101339.22;;;12.37;62.97
29569;BME280;16501;51.462;14.346;2023-05-27T00:14:49;101322.75;;;12.26;62.70
29569;BME280;16501;51.462;14.346;2023-05-27T00:17:14;101330.53;;;12.22;62.91
29569;BME280;16501;51.462;14.346;2023-05-27T00:19:40;101309.75;;;11.97;62.73
29569;BME280;16501;51.462;14.346;2023-05-27T00:22:06;101347.09;;;12.20;63.23
29569;BME280;16501;51.462;14.346;2023-05-27T00:24:33;101323.81;;;11.97;63.21
29569;BME280;16501;51.462;14.346;2023-05-27T00:27:00;101331.78;;;11.99;63.74
29569;BME280;16501;51.462;14.346;2023-05-27T00:29:26;101305.06;;;11.81;63.90
29569;BME280;16501;51.462;14.346;2023-05-27T00:31:51;101324.06;;;11.77;65.02
29569;BME280;16501;51.462;14.346;2023-05-27T00:34:17;101323.41;;;11.73;65.08
29569;BME280;16501;51.462;14.346;2023-05-27T00:36:42;101330.31;;;11.72;64.46
29569;BME280;16501;51.462;14.346;2023-05-27T00:39:07;101323.56;;;11.69;64.52
29569;BME280;16501;51.462;14.346;2023-05-27T00:41:33;101324.44;;;11.66;64.62
29569;BME280;16501;51.462;14.346;2023-05-27T00:43:59;101312.69;;;11.59;64.03
29569;BME280;16501;51.462;14.346;2023-05-27T00:46:24;101314.50;;;11.52;63.96
29569;BME280;16501;51.462;14.346;2023-05-27T00:48:49;101340.53;;;11.66;64.53
29569;BME280;16501;51.462;14.346;2023-05-27T00:51:15;101324.50;;;11.54;64.20
29569;BME280;16501;51.462;14.346;2023-05-27T00:53:42;101314.53;;;11.40;64.45
29569;BME280;16501;51.462;14.346;2023-05-27T00:56:25;101323.63;;;11.44;64.92
29569;BME280;16501;51.462;14.346;2023-05-27T00:58:51;101333.63;;;11.45;65.29
29569;BME280;16501;51.462;14.346;2023-05-27T01:01:16;101344.41;;;11.46;65.92
29569;BME280;16501;51.462;14.346;2023-05-27T01:03:42;101338.13;;;11.42;65.17
29569;BME280;16501;51.462;14.346;2023-05-27T01:08:59;101337.34;;;11.42;65.39
29569;BME280;16501;51.462;14.346;2023-05-27T01:11:37;101310.75;;;11.21;65.71
29569;BME280;16501;51.462;14.346;2023-05-27T01:14:10;101319.84;;;11.25;66.18
29569;BME280;16501;51.462;14.346;2023-05-27T01:16:38;101329.63;;;11.20;67.40
29569;BME280;16501;51.462;14.346;2023-05-27T01:19:07;101318.19;;;11.02;67.58
29569;BME280;16501;51.462;14.346;2023-05-27T01:21:36;101330.88;;;11.06;67.29
29569;BME280;16501;51.462;14.346;2023-05-27T01:24:05;101329.31;;;11.05;67.38
29569;BME280;16501;51.462;14.346;2023-05-27T01:26:30;101302.94;;;10.90;67.80
29569;BME280;16501;51.462;14.346;2023-05-27T01:28:58;101301.63;;;10.82;67.44
29569;BME280;16501;51.462;14.346;2023-05-27T01:31:31;101323.25;;;10.94;67.21
29569;BME280;16501;51.462;14.346;2023-05-27T01:34:02;101297.44;;;10.73;67.35
29569;BME280;16501;51.462;14.346;2023-05-27T01:36:31;101318.41;;;10.69;67.45
29569;BME280;16501;51.462;14.346;2023-05-27T01:38:58;101327.41;;;10.77;68.51
29569;BME280;16501;51.462;14.346;2023-05-27T01:41:25;101298.47;;;10.54;68.64
29569;BME280;16501;51.462;14.346;2023-05-27T01:43:51;101314.84;;;10.68;67.88
29569;BME280;16501;51.462;14.346;2023-05-27T01:46:17;101321.13;;;10.60;69.18
29569;BME280;16501;51.462;14.346;2023-05-27T01:48:43;101306.19;;;10.50;69.09
29569;BME280;16501;51.462;14.346;2023-05-27T01:51:08;101296.44;;;10.42;69.17
29569;BME280;16501;51.462;14.346;2023-05-27T01:53:33;101317.06;;;10.48;69.05
29569;BME280;16501;51.462;14.346;2023-05-27T01:55:59;101292.94;;;10.37;68.92
29569;BME280;16501;51.462;14.346;2023-05-27T01:58:24;101295.72;;;10.37;69.26
29569;BME280;16501;51.462;14.346;2023-05-27T02:00:49;101301.00;;;10.35;69.03
29569;BME280;16501;51.462;14.346;2023-05-27T02:03:15;101314.69;;;10.46;68.93
29569;BME280;16501;51.462;14.346;2023-05-27T02:05:40;101314.38;;;10.44;68.87
29569;BME280;16501;51.462;14.346;2023-05-27T02:08:07;101308.19;;;10.36;68.87
29569;BME280;16501;51.462;14.346;2023-05-27T02:10:32;101296.38;;;10.29;68.82
29569;BME280;16501;51.462;14.346;2023-05-27T02:12:57;101288.63;;;10.20;68.59
29569;BME280;16501;51.462;14.346;2023-05-27T02:15:23;101301.41;;;10.21;68.88
29569;BME280;16501;51.462;14.346;2023-05-27T02:17:48;101279.84;;;10.05;69.47
29569;BME280;16501;51.462;14.346;2023-05-27T02:20:20;101283.53;;;10.02;69.24
29569;BME280;16501;51.462;14.346;2023-05-27T02:22:45;101303.28;;;10.11;69.03
29569;BME280;16501;51.462;14.346;2023-05-27T02:25:10;101275.09;;;9.89;68.97
29569;BME280;16501;51.462;14.346;2023-05-27T02:27:36;101284.72;;;9.88;68.76
29569;BME280;16501;51.462;14.346;2023-05-27T02:30:01;101294.94;;;9.95;68.77
29569;BME280;16501;51.462;14.346;2023-05-27T02:32:26;101281.25;;;9.84;68.98
29569;BME280;16501;51.462;14.346;2023-05-27T02:34:51;101302.66;;;9.91;69.53
29569;BME280;16501;51.462;14.346;2023-05-27T02:37:17;101294.34;;;9.87;68.72
29569;BME280;16501;51.462;14.346;2023-05-27T02:39:42;101286.47;;;9.82;68.94
29569;BME280;16501;51.462;14.346;2023-05-27T02:42:07;101286.59;;;9.78;69.22
29569;BME280;16501;51.462;14.346;2023-05-27T02:44:33;101289.81;;;9.77;69.07
29569;BME280;16501;51.462;14.346;2023-05-27T02:46:58;101281.97;;;9.72;69.59
29569;BME280;16501;51.462;14.346;2023-05-27T02:49:23;101211.78;;;9.20;69.25
29569;BME280;16501;51.462;14.346;2023-05-27T02:51:48;101280.00;;;9.56;69.66
29569;BME280;16501;51.462;14.346;2023-05-27T02:54:14;101312.28;;;9.60;70.41
29569;BME280;16501;51.462;14.346;2023-05-27T02:56:39;101288.69;;;9.45;70.76
29569;BME280;16501;51.462;14.346;2023-05-27T02:59:05;101283.63;;;9.40;71.12
29569;BME280;16501;51.462;14.346;2023-05-27T03:01:30;101311.06;;;9.61;70.85
29569;BME280;16501;51.462;14.346;2023-05-27T03:03:56;101298.47;;;9.53;71.13
29569;BME280;16501;51.462;14.346;2023-05-27T03:06:21;101310.88;;;9.52;70.82
29569;BME280;16501;51.462;14.346;2023-05-27T03:08:47;101293.16;;;9.42;70.92
29569;BME280;16501;51.462;14.346;2023-05-27T03:11:12;101302.09;;;9.37;71.29
29569;BME280;16501;51.462;14.346;2023-05-27T03:13:37;101281.81;;;9.17;71.11
29569;BME280;16501;51.462;14.346;2023-05-27T03:16:02;101299.91;;;9.29;70.88
29569;BME280;16501;51.462;14.346;2023-05-27T03:18:28;101295.38;;;9.18;71.09
29569;BME280;16501;51.462;14.346;2023-05-27T03:20:53;101318.25;;;9.30;71.57
29569;BME280;16501;51.462;14.346;2023-05-27T03:23:18;101310.91;;;9.19;71.83
29569;BME280;16501;51.462;14.346;2023-05-27T03:25:44;101298.59;;;9.17;72.04
29569;BME280;16501;51.462;14.346;2023-05-27T03:28:11;101319.94;;;9.27;72.25
29569;BME280;16501;51.462;14.346;2023-05-27T03:30:37;101307.69;;;9.21;72.36
29569;BME280;16501;51.462;14.346;2023-05-27T03:33:03;101326.13;;;9.35;72.66
29569;BME280;16501;51.462;14.346;2023-05-27T03:35:28;101329.03;;;9.31;72.68
29569;BME280;16501;51.462;14.346;2023-05-27T03:37:53;101305.84;;;9.14;72.40
29569;BME280;16501;51.462;14.346;2023-05-27T03:40:19;101319.22;;;9.23;72.66
29569;BME280;16501;51.462;14.346;2023-05-27T03:42:44;101297.53;;;9.11;72.97
29569;BME280;16501;51.462;14.346;2023-05-27T03:45:09;101288.66;;;8.99;72.49
29569;BME280;16501;51.462;14.346;2023-05-27T03:47:35;101301.94;;;9.12;72.62
29569;BME280;16501;51.462;14.346;2023-05-27T03:50:02;101318.78;;;9.24;72.76
29569;BME280;16501;51.462;14.346;2023-05-27T03:52:27;101316.88;;;9.21;73.20
29569;BME280;16501;51.462;14.346;2023-05-27T03:54:53;101303.59;;;9.09;73.08
29569;BME280;16501;51.462;14.346;2023-05-27T03:57:18;101311.44;;;9.14;73.61
29569;BME280;16501;51.462;14.346;2023-05-27T03:59:43;101295.75;;;9.04;74.17
29569;BME280;16501;51.462;14.346;2023-05-27T04:02:08;101327.03;;;9.15;74.28
29569;BME280;16501;51.462;14.346;2023-05-27T04:04:34;101296.34;;;9.12;74.76
29569;BME280;16501;51.462;14.346;2023-05-27T04:06:59;101321.97;;;9.27;74.30
29569;BME280;16501;51.462;14.346;2023-05-27T04:09:26;101293.44;;;9.15;74.58
29569;BME280;16501;51.462;14.346;2023-05-27T04:11:51;101304.97;;;9.17;74.90
29569;BME280;16501;51.462;14.346;2023-05-27T04:14:16;101307.00;;;9.17;75.33
29569;BME280;16501;51.462;14.346;2023-05-27T04:16:42;101319.22;;;9.23;75.81
29569;BME280;16501;51.462;14.346;2023-05-27T04:19:07;101319.06;;;9.30;76.62
29569;BME280;16501;51.462;14.346;2023-05-27T04:21:33;101300.88;;;9.22;76.71
29569;BME280;16501;51.462;14.346;2023-05-27T04:23:58;101288.91;;;9.21;76.53
29569;BME280;16501;51.462;14.346;2023-05-27T04:26:23;101332.25;;;9.46;78.09
29569;BME280;16501;51.462;14.346;2023-05-27T04:28:49;101317.41;;;9.33;78.87
29569;BME280;16501;51.462;14.346;2023-05-27T04:31:14;101334.63;;;9.48;80.82
29569;BME280;16501;51.462;14.346;2023-05-27T04:33:41;101290.72;;;9.28;80.52
29569;BME280;16501;51.462;14.346;2023-05-27T04:36:07;101321.81;;;9.63;79.97
29569;BME280;16501;51.462;14.346;2023-05-27T04:38:32;101308.09;;;9.52;80.76
29569;BME280;16501;51.462;14.346;2023-05-27T04:40:59;101333.44;;;9.78;81.64
29569;BME280;16501;51.462;14.346;2023-05-27T04:43:24;101305.81;;;9.63;83.33
29569;BME280;16501;51.462;14.346;2023-05-27T04:45:52;101311.56;;;9.73;83.39
29569;BME280;16501;51.462;14.346;2023-05-27T04:48:17;101313.25;;;9.70;84.88
29569;BME280;16501;51.462;14.346;2023-05-27T04:50:43;101302.63;;;9.78;84.78
29569;BME280;16501;51.462;14.346;2023-05-27T04:53:08;101303.28;;;9.82;85.34
29569;BME280;16501;51.462;14.346;2023-05-27T04:55:33;101299.06;;;9.90;86.02
29569;BME280;16501;51.462;14.346;2023-05-27T04:57:59;101310.06;;;9.97;88.22
29569;BME280;16501;51.462;14.346;2023-05-27T05:00:29;101336.06;;;10.27;88.98
29569;BME280;16501;51.462;14.346;2023-05-27T05:03:17;101331.50;;;10.33;89.48
29569;BME280;16501;51.462;14.346;2023-05-27T05:05:51;101327.94;;;10.33;89.58
29569;BME280;16501;51.462;14.346;2023-05-27T05:08:17;101348.59;;;10.52;91.27
29569;BME280;16501;51.462;14.346;2023-05-27T05:10:43;101299.41;;;10.34;90.40
29569;BME280;16501;51.462;14.346;2023-05-27T05:13:08;101316.28;;;10.47;90.71
29569;BME280;16501;51.462;14.346;2023-05-27T05:15:33;101315.41;;;10.63;89.81
29569;BME280;16501;51.462;14.346;2023-05-27T05:17:59;101338.84;;;10.82;89.83
29569;BME280;16501;51.462;14.346;2023-05-27T05:20:25;101320.00;;;10.70;89.46
29569;BME280;16501;51.462;14.346;2023-05-27T05:22:50;101312.47;;;10.80;89.05
29569;BME280;16501;51.462;14.346;2023-05-27T05:25:15;101292.19;;;10.75;88.49
29569;BME280;16501;51.462;14.346;2023-05-27T05:27:41;101332.44;;;11.07;89.09
29569;BME280;16501;51.462;14.346;2023-05-27T05:30:07;101341.31;;;11.19;89.07
29569;BME280;16501;51.462;14.346;2023-05-27T05:32:32;101330.19;;;11.15;88.79
29569;BME280;16501;51.462;14.346;2023-05-27T05:34:57;101319.88;;;11.12;88.50
29569;BME280;16501;51.462;14.346;2023-05-27T05:37:23;101319.63;;;11.19;88.32
29569;BME280;16501;51.462;14.346;2023-05-27T05:39:48;101358.94;;;11.32;87.12
29569;BME280;16501;51.462;14.346;2023-05-27T05:42:14;101362.84;;;11.35;86.91
29569;BME280;16501;51.462;14.346;2023-05-27T05:44:39;101352.84;;;11.46;88.19
29569;BME280;16501;51.462;14.346;2023-05-27T05:47:04;101344.09;;;11.44;89.10
29569;BME280;16501;51.462;14.346;2023-05-27T05:49:30;101327.34;;;11.41;86.52
29569;BME280;16501;51.462;14.346;2023-05-27T05:51:55;101334.72;;;11.47;86.06
29569;BME280;16501;51.462;14.346;2023-05-27T05:54:38;101346.72;;;11.61;87.31
29569;BME280;16501;51.462;14.346;2023-05-27T06:00:29;101333.50;;;11.48;86.22
29569;BME280;16501;51.462;14.346;2023-05-27T06:02:57;101289.72;;;11.38;87.12
29569;BME280;16501;51.462;14.346;2023-05-27T06:05:27;101249.25;;;11.13;84.31
29569;BME280;16501;51.462;14.346;2023-05-27T06:11:35;101162.13;;;10.82;84.85
29569;BME280;16501;51.462;14.346;2023-05-27T06:14:06;101254.81;;;11.26;84.44
29569;BME280;16501;51.462;14.346;2023-05-27T06:16:32;101309.56;;;11.79;83.48
29569;BME280;16501;51.462;14.346;2023-05-27T06:18:58;101348.53;;;12.24;80.92
29569;BME280;16501;51.462;14.346;2023-05-27T06:21:23;101373.22;;;12.52;82.02
29569;BME280;16501;51.462;14.346;2023-05-27T06:23:48;101355.69;;;12.48;81.26
29569;BME280;16501;51.462;14.346;2023-05-27T06:26:14;101366.09;;;12.60;80.80
29569;BME280;16501;51.462;14.346;2023-05-27T06:28:39;101366.53;;;12.58;76.80
29569;BME280;16501;51.462;14.346;2023-05-27T06:31:05;101369.75;;;12.70;80.39
29569;BME280;16501;51.462;14.346;2023-05-27T06:33:30;101373.81;;;12.78;76.70
29569;BME280;16501;51.462;14.346;2023-05-27T06:35:55;101381.66;;;12.83;77.42
29569;BME280;16501;51.462;14.346;2023-05-27T06:38:20;101374.84;;;12.93;75.97
29569;BME280;16501;51.462;14.346;2023-05-27T06:40:46;101373.91;;;12.96;74.68
29569;BME280;16501;51.462;14.346;2023-05-27T06:43:14;101392.09;;;13.05;72.88
29569;BME280;16501;51.462;14.346;2023-05-27T06:45:39;101389.00;;;13.12;74.55
29569;BME280;16501;51.462;14.346;2023-05-27T06:48:06;101366.78;;;13.05;74.37
29569;BME280;16501;51.462;14.346;2023-05-27T06:50:32;101375.91;;;13.27;73.34
29569;BME280;16501;51.462;14.346;2023-05-27T06:52:57;101376.69;;;13.28;70.78
29569;BME280;16501;51.462;14.346;2023-05-27T06:55:22;101369.22;;;13.34;71.60
29569;BME280;16501;51.462;14.346;2023-05-27T06:57:48;101357.94;;;13.34;71.31
29569;BME280;16501;51.462;14.346;2023-05-27T07:00:13;101357.78;;;13.37;72.18
29569;BME280;16501;51.462;14.346;2023-05-27T07:02:39;101367.84;;;13.48;72.07
29569;BME280;16501;51.462;14.346;2023-05-27T07:05:04;101378.19;;;13.60;69.08
29569;BME280;16501;51.462;14.346;2023-05-27T07:07:29;101354.09;;;13.59;69.44
29569;BME280;16501;51.462;14.346;2023-05-27T07:09:55;101365.22;;;13.72;70.21
29569;BME280;16501;51.462;14.346;2023-05-27T07:12:20;101361.31;;;13.79;66.78
29569;BME280;16501;51.462;14.346;2023-05-27T07:14:46;101343.94;;;13.71;67.96
29569;BME280;16501;51.462;14.346;2023-05-27T07:17:14;101374.78;;;14.11;67.94
29569;BME280;16501;51.462;14.346;2023-05-27T07:19:48;101348.00;;;14.07;68.09
29569;BME280;16501;51.462;14.346;2023-05-27T07:22:13;101365.69;;;14.26;65.18
29569;BME280;16501;51.462;14.346;2023-05-27T07:24:38;101351.09;;;14.27;64.80
29569;BME280;16501;51.462;14.346;2023-05-27T07:27:04;101368.94;;;14.43;64.04
29569;BME280;16501;51.462;14.346;2023-05-27T07:29:29;101343.25;;;14.41;64.40
29569;BME280;16501;51.462;14.346;2023-05-27T07:31:54;101369.06;;;14.58;64.05
29569;BME280;16501;51.462;14.346;2023-05-27T07:34:20;101355.63;;;14.52;63.58
29569;BME280;16501;51.462;14.346;2023-05-27T07:36:46;101337.75;;;14.46;62.67
29569;BME280;16501;51.462;14.346;2023-05-27T07:39:11;101362.78;;;14.72;62.14
29569;BME280;16501;51.462;14.346;2023-05-27T07:41:36;101337.38;;;14.72;62.10
29569;BME280;16501;51.462;14.346;2023-05-27T07:44:02;101363.03;;;14.93;61.94
29569;BME280;16501;51.462;14.346;2023-05-27T07:46:27;101343.41;;;14.98;61.90
29569;BME280;16501;51.462;14.346;2023-05-27T07:48:52;101340.44;;;14.93;59.88
29569;BME280;16501;51.462;14.346;2023-05-27T07:51:18;101342.28;;;15.05;61.07
29569;BME280;16501;51.462;14.346;2023-05-27T07:53:43;101344.00;;;15.02;60.25
29569;BME280;16501;51.462;14.346;2023-05-27T07:56:08;101340.69;;;15.04;59.55
29569;BME280;16501;51.462;14.346;2023-05-27T07:58:33;101323.41;;;15.11;59.63
29569;BME280;16501;51.462;14.346;2023-05-27T08:00:59;101331.47;;;15.27;59.13
29569;BME280;16501;51.462;14.346;2023-05-27T08:03:24;101331.34;;;15.46;58.90
29569;BME280;16501;51.462;14.346;2023-05-27T08:05:49;101345.59;;;15.52;56.92
29569;BME280;16501;51.462;14.346;2023-05-27T08:08:15;101324.00;;;15.63;58.92
29569;BME280;16501;51.462;14.346;2023-05-27T08:10:40;101315.13;;;15.56;56.35
29569;BME280;16501;51.462;14.346;2023-05-27T08:13:05;101329.28;;;15.71;56.67
29569;BME280;16501;51.462;14.346;2023-05-27T08:15:30;101322.66;;;15.74;56.49
29569;BME280;16501;51.462;14.346;2023-05-27T08:17:56;101332.28;;;15.91;56.98
29569;BME280;16501;51.462;14.346;2023-05-27T08:20:22;101330.56;;;15.94;57.56
29569;BME280;16501;51.462;14.346;2023-05-27T08:22:47;101320.19;;;15.91;56.18
29569;BME280;16501;51.462;14.346;2023-05-27T08:25:12;101314.06;;;15.92;58.01
29569;BME280;16501;51.462;14.346;2023-05-27T08:27:50;101328.44;;;16.18;57.95
29569;BME280;16501;51.462;14.346;2023-05-27T08:30:17;101330.50;;;16.18;55.62
29569;BME280;16501;51.462;14.346;2023-05-27T08:32:42;101307.94;;;16.24;56.15
29569;BME280;16501;51.462;14.346;2023-05-27T08:35:09;101314.09;;;16.22;53.51
29569;BME280;16501;51.462;14.346;2023-05-27T08:37:35;101320.34;;;16.41;55.41
29569;BME280;16501;51.462;14.346;2023-05-27T08:40:00;101323.94;;;16.56;53.59
29569;BME280;16501;51.462;14.346;2023-05-27T08:42:26;101322.09;;;16.53;54.28
29569;BME280;16501;51.462;14.346;2023-05-27T08:44:51;101309.09;;;16.62;53.26
29569;BME280;16501;51.462;14.346;2023-05-27T08:47:17;101293.38;;;16.61;52.84
29569;BME280;16501;51.462;14.346;2023-05-27T08:49:42;101300.00;;;16.57;52.73
29569;BME280;16501;51.462;14.346;2023-05-27T08:52:09;101309.16;;;16.82;50.70
29569;BME280;16501;51.462;14.346;2023-05-27T08:54:36;101288.22;;;16.94;50.70
29569;BME280;16501;51.462;14.346;2023-05-27T08:57:06;101302.22;;;17.19;49.46
29569;BME280;16501;51.462;14.346;2023-05-27T08:59:33;101284.91;;;16.96;51.34
29569;BME280;16501;51.462;14.346;2023-05-27T09:02:00;101299.97;;;17.23;51.17
29569;BME280;16501;51.462;14.346;2023-05-27T09:04:25;101268.72;;;17.17;51.75
29569;BME280;16501;51.462;14.346;2023-05-27T09:06:51;101299.84;;;17.52;51.05
29569;BME280;16501;51.462;14.346;2023-05-27T09:09:18;101273.78;;;17.28;50.09
29569;BME280;16501;51.462;14.346;2023-05-27T09:11:43;101285.38;;;17.30;49.92
29569;BME280;16501;51.462;14.346;2023-05-27T09:14:19;101287.28;;;17.18;51.98
29569;BME280;16501;51.462;14.346;2023-05-27T09:16:45;101296.22;;;17.31;50.39
29569;BME280;16501;51.462;14.346;2023-05-27T09:19:20;101284.25;;;17.42;50.09
29569;BME280;16501;51.462;14.346;2023-05-27T09:21:45;101250.22;;;17.42;50.61
29569;BME280;16501;51.462;14.346;2023-05-27T09:24:11;101255.31;;;17.59;49.44
29569;BME280;16501;51.462;14.346;2023-05-27T09:26:36;101253.38;;;17.70;47.87
29569;BME280;16501;51.462;14.346;2023-05-27T09:29:06;101271.44;;;17.94;47.32
29569;BME280;16501;51.462;14.346;2023-05-27T09:31:37;101272.53;;;18.02;47.70
29569;BME280;16501;51.462;14.346;2023-05-27T09:34:09;101253.69;;;17.99;49.07
29569;BME280;16501;51.462;14.346;2023-05-27T09:36:41;101255.06;;;18.09;49.29
29569;BME280;16501;51.462;14.346;2023-05-27T09:39:07;101251.31;;;17.71;46.33
29569;BME280;16501;51.462;14.346;2023-05-27T09:41:32;101265.31;;;18.01;46.23
29569;BME280;16501;51.462;14.346;2023-05-27T09:43:57;101268.88;;;17.96;47.26
29569;BME280;16501;51.462;14.346;2023-05-27T09:46:24;101269.66;;;18.22;49.27
29569;BME280;16501;51.462;14.346;2023-05-27T09:48:50;101247.72;;;18.23;47.17
29569;BME280;16501;51.462;14.346;2023-05-27T09:51:15;101249.63;;;18.37;46.86
29569;BME280;16501;51.462;14.346;2023-05-27T09:53:42;101255.13;;;18.46;47.91
29569;BME280;16501;51.462;14.346;2023-05-27T09:56:07;101245.38;;;18.21;46.28
29569;BME280;16501;51.462;14.346;2023-05-27T09:58:33;101245.00;;;18.40;47.27
29569;BME280;16501;51.462;14.346;2023-05-27T10:00:58;101261.22;;;18.65;44.78
29569;BME280;16501;51.462;14.346;2023-05-27T10:03:24;101251.22;;;18.76;44.23
29569;BME280;16501;51.462;14.346;2023-05-27T10:05:50;101248.50;;;18.61;44.27
29569;BME280;16501;51.462;14.346;2023-05-27T10:08:16;101224.78;;;18.64;45.04
29569;BME280;16501;51.462;14.346;2023-05-27T10:10:42;101231.53;;;18.72;45.22
29569;BME280;16501;51.462;14.346;2023-05-27T10:13:09;101233.09;;;18.73;44.77
29569;BME280;16501;51.462;14.346;2023-05-27T10:15:34;101228.44;;;18.70;45.73
29569;BME280;16501;51.462;14.346;2023-05-27T10:18:05;101252.25;;;18.78;46.00
29569;BME280;16501;51.462;14.346;2023-05-27T10:23:20;101249.50;;;18.90;45.83
29569;BME280;16501;51.462;14.346;2023-05-27T10:26:05;101246.47;;;19.05;43.95
29569;BME280;16501;51.462;14.346;2023-05-27T10:31:05;101243.72;;;19.21;43.55
29569;BME280;16501;51.462;14.346;2023-05-27T10:33:38;101237.56;;;19.34;45.45
29569;BME280;16501;51.462;14.346;2023-05-27T10:36:08;101227.19;;;19.26;45.32
29569;BME280;16501;51.462;14.346;2023-05-27T10:38:35;101212.44;;;19.16;45.48
29569;BME280;16501;51.462;14.346;2023-05-27T10:41:01;101224.09;;;19.35;44.61
29569;BME280;16501;51.462;14.346;2023-05-27T10:43:28;101188.97;;;19.38;43.92
29569;BME280;16501;51.462;14.346;2023-05-27T10:48:31;101224.50;;;19.76;43.11
29569;BME280;16501;51.462;14.346;2023-05-27T10:50:57;101178.41;;;19.50;42.65
29569;BME280;16501;51.462;14.346;2023-05-27T10:53:26;101194.41;;;19.41;43.60
29569;BME280;16501;51.462;14.346;2023-05-27T10:55:51;101211.72;;;19.38;41.94
29569;BME280;16501;51.462;14.346;2023-05-27T10:58:16;101204.25;;;19.52;41.39
29569;BME280;16501;51.462;14.346;2023-05-27T11:00:45;101216.69;;;19.71;41.63
29569;BME280;16501;51.462;14.346;2023-05-27T11:03:23;101172.75;;;19.61;44.29
29569;BME280;16501;51.462;14.346;2023-05-27T11:06:03;101185.66;;;19.62;42.30
29569;BME280;16501;51.462;14.346;2023-05-27T11:08:38;101213.34;;;19.73;41.13
29569;BME280;16501;51.462;14.346;2023-05-27T11:11:08;101205.66;;;20.02;41.98
29569;BME280;16501;51.462;14.346;2023-05-27T11:13:44;101208.75;;;19.92;41.77
29569;BME280;16501;51.462;14.346;2023-05-27T11:16:11;101206.66;;;19.82;40.66
29569;BME280;16501;51.462;14.346;2023-05-27T11:18:39;101208.00;;;20.03;41.37
29569;BME280;16501;51.462;14.346;2023-05-27T11:21:06;101192.19;;;20.19;42.36
29569;BME280;16501;51.462;14.346;2023-05-27T11:23:36;101198.91;;;20.33;39.27
29569;BME280;16501;51.462;14.346;2023-05-27T11:26:02;101190.59;;;20.52;40.23
29569;BME280;16501;51.462;14.346;2023-05-27T11:28:28;101180.75;;;20.59;41.20
29569;BME280;16501;51.462;14.346;2023-05-27T11:31:03;101192.41;;;20.66;40.00
29569;BME280;16501;51.462;14.346;2023-05-27T11:33:32;101172.19;;;20.59;39.32
29569;BME280;16501;51.462;14.346;2023-05-27T11:36:07;101171.16;;;20.73;40.62
29569;BME280;16501;51.462;14.346;2023-05-27T11:38:55;101188.25;;;20.56;40.33
29569;BME280;16501;51.462;14.346;2023-05-27T11:41:23;101184.91;;;20.41;40.69
29569;BME280;16501;51.462;14.346;2023-05-27T11:43:54;101185.16;;;20.71;40.84
29569;BME280;16501;51.462;14.346;2023-05-27T11:46:20;101183.59;;;20.70;40.81
29569;BME280;16501;51.462;14.346;2023-05-27T11:48:45;101170.63;;;20.69;39.20
29569;BME280;16501;51.462;14.346;2023-05-27T11:51:11;101168.03;;;20.71;40.72
29569;BME280;16501;51.462;14.346;2023-05-27T11:53:56;101158.47;;;20.63;40.13
29569;BME280;16501;51.462;14.346;2023-05-27T11:56:22;101160.75;;;20.81;37.66
29569;BME280;16501;51.462;14.346;2023-05-27T11:58:47;101155.59;;;20.74;36.93
29569;BME280;16501;51.462;14.346;2023-05-27T12:01:12;101139.00;;;20.78;37.11
29569;BME280;16501;51.462;14.346;2023-05-27T12:03:38;101139.72;;;20.96;38.19
29569;BME280;16501;51.462;14.346;2023-05-27T12:06:03;101154.41;;;21.11;38.26
29569;BME280;16501;51.462;14.346;2023-05-27T12:08:29;101145.59;;;21.09;38.78
29569;BME280;16501;51.462;14.346;2023-05-27T12:10:54;101130.09;;;20.99;39.99
29569;BME280;16501;51.462;14.346;2023-05-27T12:13:20;101151.56;;;21.11;40.47
29569;BME280;16501;51.462;14.346;2023-05-27T12:15:49;101137.78;;;21.15;39.22
29569;BME280;16501;51.462;14.346;2023-05-27T12:18:15;101152.25;;;21.28;38.87
29569;BME280;16501;51.462;14.346;2023-05-27T12:20:41;101123.16;;;21.36;37.65
29569;BME280;16501;51.462;14.346;2023-05-27T12:23:06;101132.00;;;21.32;37.37
29569;BME280;16501;51.462;14.346;2023-05-27T12:25:32;101118.44;;;21.44;37.16
29569;BME280;16501;51.462;14.346;2023-05-27T12:27:57;101109.59;;;21.42;37.86
29569;BME280;16501;51.462;14.346;2023-05-27T12:30:22;101091.25;;;21.32;38.63
29569;BME280;16501;51.462;14.346;2023-05-27T12:32:50;101124.28;;;21.16;38.54
29569;BME280;16501;51.462;14.346;2023-05-27T12:35:15;101077.38;;;20.64;38.59
29569;BME280;16501;51.462;14.346;2023-05-27T12:37:40;101106.38;;;20.74;39.39
29569;BME280;16501;51.462;14.346;2023-05-27T12:40:07;101110.28;;;20.59;40.07
29569;BME280;16501;51.462;14.346;2023-05-27T12:42:35;101105.53;;;20.84;40.46
29569;BME280;16501;51.462;14.346;2023-05-27T12:45:00;101095.34;;;21.06;39.36
29569;BME280;16501;51.462;14.346;2023-05-27T12:47:25;101099.97;;;21.09;39.29
29569;BME280;16501;51.462;14.346;2023-05-27T12:49:50;101103.19;;;21.36;39.01
29569;BME280;16501;51.462;14.346;2023-05-27T12:52:16;101092.50;;;21.42;37.84
29569;BME280;16501;51.462;14.346;2023-05-27T12:54:41;101081.84;;;21.48;37.83
29569;BME280;16501;51.462;14.346;2023-05-27T12:57:06;101078.84;;;21.29;38.07